Arenzville, Illinois
Current Conditions -  °F | °C
As of 8:55 PM on Tuesday 21 Oct 2014 (Local Time) from KIJX Reporting Station
Clear Clear  
Wind Chill: 44°   Ceiling: Unl
Heat Index: 47°   Visibility: 10mi
Dew Point: 39°   Wind: 5mph
Humidity: 75%   Direction: 60°ENE
Pressure: 30.2"   Gusts: NA
Location:  39.88°N, 90.37°W
Report Text: KIJX 220155Z AUTO 06004KT 10SM CLR 08/04 A3020 RMK AO2 T00810039
Loading
Personal Weather Stations






























Interactive Weather Map New forecast layout! Learn more

10-Day Weather Forecast

Advertisements
Track Severe Weather on mobile